A01 weather

Dwellingup Airstrip
Dwellingup, Western Australia, Australia

Public forecast

Using degrees Celsius for public forecast. Weather courtesy of forecast.io.

METAR (pilot weather report)

Closest report is Perth Jandakot Airport, 37.1 nm (68.6 km) NNW. Retrieved 2019/03/23 10:00 UTC (13 minutes ago):

YPJT 231000Z AUTO 22013KT 9999 // NCD 22/12 Q1015 RF00.0/000.0

TAF (pilot weather forecast)

Closest forecast is Perth Jandakot Airport, 37.1 nm (68.6 km) NNW. Retrieved 2019/03/23 06:00 UTC (4 hours ago):

TAF YPJT 230431Z 2306/2324 12012KT CAVOK FM231200 18008KT CAVOK